sensor_id;sensor_type;location;lat;lon;timestamp;pressure;altitude;pressure_sealevel;temperature;humidity
40850;BME280;26571;41.610;25.380;2023-11-22T00:00:52;97697.56;;;14.50;74.41
40850;BME280;26571;41.610;25.380;2023-11-22T00:03:17;97692.47;;;14.48;74.30
40850;BME280;26571;41.610;25.380;2023-11-22T00:05:43;97687.19;;;14.35;73.15
40850;BME280;26571;41.610;25.380;2023-11-22T00:08:08;97688.22;;;14.34;73.76
40850;BME280;26571;41.610;25.380;2023-11-22T00:10:34;97684.78;;;14.27;73.30
40850;BME280;26571;41.610;25.380;2023-11-22T00:12:59;97701.84;;;14.38;73.30
40850;BME280;26571;41.610;25.380;2023-11-22T00:15:25;97700.19;;;14.43;72.96
40850;BME280;26571;41.610;25.380;2023-11-22T00:17:51;97708.16;;;14.43;73.11
40850;BME280;26571;41.610;25.380;2023-11-22T00:20:16;97700.78;;;14.45;72.56
40850;BME280;26571;41.610;25.380;2023-11-22T00:22:43;97696.97;;;14.48;72.68
40850;BME280;26571;41.610;25.380;2023-11-22T00:25:10;97690.81;;;14.41;71.70
40850;BME280;26571;41.610;25.380;2023-11-22T00:27:38;97702.41;;;14.46;71.91
40850;BME280;26571;41.610;25.380;2023-11-22T00:30:04;97703.06;;;14.35;72.48
40850;BME280;26571;41.610;25.380;2023-11-22T00:32:29;97708.59;;;14.27;72.34
40850;BME280;26571;41.610;25.380;2023-11-22T00:34:55;97705.34;;;14.25;71.72
40850;BME280;26571;41.610;25.380;2023-11-22T00:37:20;97699.06;;;14.13;72.15
40850;BME280;26571;41.610;25.380;2023-11-22T00:39:46;97656.16;;;13.71;71.54
40850;BME280;26571;41.610;25.380;2023-11-22T00:42:11;97711.06;;;14.02;72.49
40850;BME280;26571;41.610;25.380;2023-11-22T00:44:37;97711.09;;;14.09;71.52
40850;BME280;26571;41.610;25.380;2023-11-22T00:47:02;97708.25;;;14.04;71.51
40850;BME280;26571;41.610;25.380;2023-11-22T00:49:28;97706.19;;;14.06;71.76
40850;BME280;26571;41.610;25.380;2023-11-22T00:51:54;97695.19;;;14.09;71.55
40850;BME280;26571;41.610;25.380;2023-11-22T00:54:19;97689.09;;;14.02;72.17
40850;BME280;26571;41.610;25.380;2023-11-22T00:56:46;97691.34;;;14.05;72.56
40850;BME280;26571;41.610;25.380;2023-11-22T00:59:11;97677.31;;;13.98;72.43
40850;BME280;26571;41.610;25.380;2023-11-22T01:01:36;97704.56;;;14.05;73.11
40850;BME280;26571;41.610;25.380;2023-11-22T01:04:02;97691.94;;;14.07;73.15
40850;BME280;26571;41.610;25.380;2023-11-22T01:06:28;97692.13;;;14.12;72.48
40850;BME280;26571;41.610;25.380;2023-11-22T01:08:54;97687.06;;;14.04;72.75
40850;BME280;26571;41.610;25.380;2023-11-22T01:11:19;97663.06;;;13.99;72.36
40850;BME280;26571;41.610;25.380;2023-11-22T01:13:45;97693.72;;;14.26;71.69
40850;BME280;26571;41.610;25.380;2023-11-22T01:16:12;97685.19;;;14.24;71.61
40850;BME280;26571;41.610;25.380;2023-11-22T01:18:38;97656.94;;;13.91;72.15
40850;BME280;26571;41.610;25.380;2023-11-22T01:21:04;97666.28;;;14.01;71.77
40850;BME280;26571;41.610;25.380;2023-11-22T01:23:31;97673.84;;;14.04;71.43
40850;BME280;26571;41.610;25.380;2023-11-22T01:25:59;97667.13;;;13.94;71.53
40850;BME280;26571;41.610;25.380;2023-11-22T01:28:26;97675.66;;;14.10;71.95
40850;BME280;26571;41.610;25.380;2023-11-22T01:30:54;97683.56;;;14.16;71.04
40850;BME280;26571;41.610;25.380;2023-11-22T01:33:23;97684.56;;;14.22;71.10
40850;BME280;26571;41.610;25.380;2023-11-22T01:35:49;97688.66;;;14.25;70.94
40850;BME280;26571;41.610;25.380;2023-11-22T01:38:17;97664.28;;;14.03;70.78
40850;BME280;26571;41.610;25.380;2023-11-22T01:40:47;97690.31;;;14.12;71.05
40850;BME280;26571;41.610;25.380;2023-11-22T01:43:19;97669.38;;;13.91;71.07
40850;BME280;26571;41.610;25.380;2023-11-22T01:45:46;97675.25;;;14.00;71.09
40850;BME280;26571;41.610;25.380;2023-11-22T01:48:12;97681.38;;;13.93;71.11
40850;BME280;26571;41.610;25.380;2023-11-22T01:50:42;97672.41;;;13.94;70.82
40850;BME280;26571;41.610;25.380;2023-11-22T01:53:10;97662.66;;;13.88;71.33
40850;BME280;26571;41.610;25.380;2023-11-22T01:55:36;97635.44;;;13.68;71.32
40850;BME280;26571;41.610;25.380;2023-11-22T01:58:02;97654.53;;;13.83;71.32
40850;BME280;26571;41.610;25.380;2023-11-22T02:00:32;97653.91;;;13.81;71.71
40850;BME280;26571;41.610;25.380;2023-11-22T02:03:00;97639.09;;;13.74;71.04
40850;BME280;26571;41.610;25.380;2023-11-22T02:05:26;97652.09;;;13.88;71.01
40850;BME280;26571;41.610;25.380;2023-11-22T02:07:52;97638.03;;;13.88;70.63
40850;BME280;26571;41.610;25.380;2023-11-22T02:10:18;97630.91;;;13.88;70.71
40850;BME280;26571;41.610;25.380;2023-11-22T02:12:43;97606.53;;;13.73;70.72
40850;BME280;26571;41.610;25.380;2023-11-22T02:15:09;97624.81;;;13.81;71.36
40850;BME280;26571;41.610;25.380;2023-11-22T02:17:35;97618.31;;;13.77;70.76
40850;BME280;26571;41.610;25.380;2023-11-22T02:20:01;97599.25;;;13.49;71.49
40850;BME280;26571;41.610;25.380;2023-11-22T02:22:26;97635.00;;;13.71;71.71
40850;BME280;26571;41.610;25.380;2023-11-22T02:24:52;97625.25;;;13.78;71.54
40850;BME280;26571;41.610;25.380;2023-11-22T02:27:17;97628.88;;;13.84;71.13
40850;BME280;26571;41.610;25.380;2023-11-22T02:29:44;97629.69;;;13.84;71.36
40850;BME280;26571;41.610;25.380;2023-11-22T02:32:10;97638.84;;;13.88;71.44
40850;BME280;26571;41.610;25.380;2023-11-22T02:34:36;97644.97;;;13.89;71.36
40850;BME280;26571;41.610;25.380;2023-11-22T02:37:01;97645.97;;;13.88;71.50
40850;BME280;26571;41.610;25.380;2023-11-22T02:39:35;97641.50;;;13.88;71.78
40850;BME280;26571;41.610;25.380;2023-11-22T02:42:02;97649.41;;;13.95;71.20
40850;BME280;26571;41.610;25.380;2023-11-22T02:44:29;97639.44;;;13.90;71.29
40850;BME280;26571;41.610;25.380;2023-11-22T02:46:54;97642.72;;;13.92;71.77
40850;BME280;26571;41.610;25.380;2023-11-22T02:49:20;97642.28;;;13.95;71.50
40850;BME280;26571;41.610;25.380;2023-11-22T02:51:45;97644.34;;;13.93;71.15
40850;BME280;26571;41.610;25.380;2023-11-22T02:54:11;97642.31;;;13.89;71.59
40850;BME280;26571;41.610;25.380;2023-11-22T02:56:36;97649.63;;;13.87;71.68
40850;BME280;26571;41.610;25.380;2023-11-22T02:59:02;97656.34;;;13.89;72.16
40850;BME280;26571;41.610;25.380;2023-11-22T03:01:28;97658.78;;;13.91;72.01
40850;BME280;26571;41.610;25.380;2023-11-22T03:03:53;97650.22;;;13.95;72.17
40850;BME280;26571;41.610;25.380;2023-11-22T03:06:18;97675.63;;;14.16;71.83
40850;BME280;26571;41.610;25.380;2023-11-22T03:08:44;97660.34;;;14.12;71.28
40850;BME280;26571;41.610;25.380;2023-11-22T03:11:09;97678.25;;;14.30;70.18
40850;BME280;26571;41.610;25.380;2023-11-22T03:13:35;97676.41;;;14.30;69.90
40850;BME280;26571;41.610;25.380;2023-11-22T03:16:00;97668.28;;;14.25;70.25
40850;BME280;26571;41.610;25.380;2023-11-22T03:18:28;97670.91;;;14.25;70.63
40850;BME280;26571;41.610;25.380;2023-11-22T03:20:54;97672.97;;;14.23;70.77
40850;BME280;26571;41.610;25.380;2023-11-22T03:23:20;97671.53;;;14.27;70.52
40850;BME280;26571;41.610;25.380;2023-11-22T03:25:45;97668.06;;;14.33;70.21
40850;BME280;26571;41.610;25.380;2023-11-22T03:28:11;97643.03;;;14.16;70.57
40850;BME280;26571;41.610;25.380;2023-11-22T03:30:37;97662.13;;;14.31;71.73
40850;BME280;26571;41.610;25.380;2023-11-22T03:33:04;97669.69;;;14.34;71.09
40850;BME280;26571;41.610;25.380;2023-11-22T03:35:30;97670.88;;;14.32;72.18
40850;BME280;26571;41.610;25.380;2023-11-22T03:37:56;97673.53;;;14.38;72.05
40850;BME280;26571;41.610;25.380;2023-11-22T03:40:21;97666.22;;;14.34;71.83
40850;BME280;26571;41.610;25.380;2023-11-22T03:42:47;97669.72;;;14.28;71.69
40850;BME280;26571;41.610;25.380;2023-11-22T03:45:12;97671.53;;;14.27;72.31
40850;BME280;26571;41.610;25.380;2023-11-22T03:47:39;97666.84;;;14.29;72.80
40850;BME280;26571;41.610;25.380;2023-11-22T03:50:06;97666.25;;;14.27;71.87
40850;BME280;26571;41.610;25.380;2023-11-22T03:52:31;97667.44;;;14.31;71.96
40850;BME280;26571;41.610;25.380;2023-11-22T03:54:57;97673.97;;;14.29;72.84
40850;BME280;26571;41.610;25.380;2023-11-22T03:57:23;97680.91;;;14.16;73.83
40850;BME280;26571;41.610;25.380;2023-11-22T03:59:48;97676.88;;;14.14;73.37
40850;BME280;26571;41.610;25.380;2023-11-22T04:02:14;97679.09;;;14.23;73.22
40850;BME280;26571;41.610;25.380;2023-11-22T04:04:39;97660.97;;;14.14;73.99
40850;BME280;26571;41.610;25.380;2023-11-22T04:07:07;97676.19;;;14.32;73.78
40850;BME280;26571;41.610;25.380;2023-11-22T04:09:33;97678.44;;;14.35;74.70
40850;BME280;26571;41.610;25.380;2023-11-22T04:11:58;97676.00;;;14.33;75.59
40850;BME280;26571;41.610;25.380;2023-11-22T04:14:24;97672.34;;;14.28;76.39
40850;BME280;26571;41.610;25.380;2023-11-22T04:16:51;97669.91;;;14.33;76.40
40850;BME280;26571;41.610;25.380;2023-11-22T04:19:16;97671.28;;;14.35;76.10
40850;BME280;26571;41.610;25.380;2023-11-22T04:21:42;97670.69;;;14.33;76.69
40850;BME280;26571;41.610;25.380;2023-11-22T04:24:08;97678.22;;;14.36;76.84
40850;BME280;26571;41.610;25.380;2023-11-22T04:26:34;97648.94;;;14.25;76.76
40850;BME280;26571;41.610;25.380;2023-11-22T04:28:59;97676.19;;;14.38;77.28
40850;BME280;26571;41.610;25.380;2023-11-22T04:31:25;97683.50;;;14.43;77.33
40850;BME280;26571;41.610;25.380;2023-11-22T04:33:51;97676.38;;;14.43;77.25
40850;BME280;26571;41.610;25.380;2023-11-22T04:36:16;97684.09;;;14.52;76.99
40850;BME280;26571;41.610;25.380;2023-11-22T04:38:42;97683.69;;;14.55;76.89
40850;BME280;26571;41.610;25.380;2023-11-22T04:41:07;97690.81;;;14.54;77.41
40850;BME280;26571;41.610;25.380;2023-11-22T04:43:33;97699.16;;;14.58;77.29
40850;BME280;26571;41.610;25.380;2023-11-22T04:45:58;97708.13;;;14.57;77.65
40850;BME280;26571;41.610;25.380;2023-11-22T04:48:24;97707.94;;;14.52;78.58
40850;BME280;26571;41.610;25.380;2023-11-22T04:50:49;97710.00;;;14.50;79.44
40850;BME280;26571;41.610;25.380;2023-11-22T04:53:15;97707.13;;;14.58;79.07
40850;BME280;26571;41.610;25.380;2023-11-22T04:55:40;97708.75;;;14.59;79.23
40850;BME280;26571;41.610;25.380;2023-11-22T04:58:06;97700.34;;;14.62;79.45
40850;BME280;26571;41.610;25.380;2023-11-22T05:00:31;97698.09;;;14.65;79.31
40850;BME280;26571;41.610;25.380;2023-11-22T05:02:57;97693.03;;;14.64;79.32
40850;BME280;26571;41.610;25.380;2023-11-22T05:05:22;97680.44;;;14.53;79.11
40850;BME280;26571;41.610;25.380;2023-11-22T05:07:48;97707.31;;;14.63;79.27
40850;BME280;26571;41.610;25.380;2023-11-22T05:10:13;97701.56;;;14.66;79.29
40850;BME280;26571;41.610;25.380;2023-11-22T05:12:39;97698.28;;;14.77;78.70
40850;BME280;26571;41.610;25.380;2023-11-22T05:15:06;97711.09;;;14.80;78.60
40850;BME280;26571;41.610;25.380;2023-11-22T05:17:32;97708.84;;;14.84;78.84
40850;BME280;26571;41.610;25.380;2023-11-22T05:19:58;97715.53;;;14.93;78.84
40850;BME280;26571;41.610;25.380;2023-11-22T05:22:23;97713.69;;;14.93;78.98
40850;BME280;26571;41.610;25.380;2023-11-22T05:24:49;97721.19;;;15.03;78.53
40850;BME280;26571;41.610;25.380;2023-11-22T05:27:14;97720.75;;;15.06;78.66
40850;BME280;26571;41.610;25.380;2023-11-22T05:29:43;97727.94;;;14.99;79.09
40850;BME280;26571;41.610;25.380;2023-11-22T05:32:09;97724.47;;;14.98;79.46
40850;BME280;26571;41.610;25.380;2023-11-22T05:34:34;97718.53;;;14.96;79.15
40850;BME280;26571;41.610;25.380;2023-11-22T05:37:00;97706.75;;;14.92;79.22
40850;BME280;26571;41.610;25.380;2023-11-22T05:39:25;97715.31;;;14.94;79.42
40850;BME280;26571;41.610;25.380;2023-11-22T05:41:51;97715.97;;;14.83;80.26
40850;BME280;26571;41.610;25.380;2023-11-22T05:44:17;97722.94;;;14.71;80.94
40850;BME280;26571;41.610;25.380;2023-11-22T05:46:43;97697.78;;;14.48;81.47
40850;BME280;26571;41.610;25.380;2023-11-22T05:49:08;97715.66;;;14.60;81.89
40850;BME280;26571;41.610;25.380;2023-11-22T05:51:35;97706.13;;;14.52;82.15
40850;BME280;26571;41.610;25.380;2023-11-22T05:54:01;97716.50;;;14.40;83.09
40850;BME280;26571;41.610;25.380;2023-11-22T05:56:26;97714.28;;;14.37;83.76
40850;BME280;26571;41.610;25.380;2023-11-22T05:58:51;97722.22;;;14.37;83.79
40850;BME280;26571;41.610;25.380;2023-11-22T06:01:17;97720.56;;;14.36;84.00
40850;BME280;26571;41.610;25.380;2023-11-22T06:03:43;97723.09;;;14.18;84.20
40850;BME280;26571;41.610;25.380;2023-11-22T06:06:08;97738.72;;;14.33;84.81
40850;BME280;26571;41.610;25.380;2023-11-22T06:08:33;97736.50;;;14.30;84.82
40850;BME280;26571;41.610;25.380;2023-11-22T06:10:59;97754.81;;;14.38;83.76
40850;BME280;26571;41.610;25.380;2023-11-22T06:13:28;97759.47;;;14.36;82.84
40850;BME280;26571;41.610;25.380;2023-11-22T06:15:53;97753.00;;;14.25;82.94
40850;BME280;26571;41.610;25.380;2023-11-22T06:18:18;97753.38;;;14.22;83.56
40850;BME280;26571;41.610;25.380;2023-11-22T06:20:44;97755.00;;;14.36;82.73
40850;BME280;26571;41.610;25.380;2023-11-22T06:23:10;97754.63;;;14.33;83.88
40850;BME280;26571;41.610;25.380;2023-11-22T06:25:36;97764.78;;;14.42;83.46
40850;BME280;26571;41.610;25.380;2023-11-22T06:28:02;97780.06;;;14.54;82.50
40850;BME280;26571;41.610;25.380;2023-11-22T06:30:28;97774.13;;;14.65;82.03
40850;BME280;26571;41.610;25.380;2023-11-22T06:32:55;97778.38;;;14.66;82.17
40850;BME280;26571;41.610;25.380;2023-11-22T06:35:20;97788.78;;;14.74;81.42
40850;BME280;26571;41.610;25.380;2023-11-22T06:37:46;97787.53;;;14.83;81.40
40850;BME280;26571;41.610;25.380;2023-11-22T06:40:12;97787.09;;;14.86;81.33
40850;BME280;26571;41.610;25.380;2023-11-22T06:42:38;97783.03;;;14.84;82.08
40850;BME280;26571;41.610;25.380;2023-11-22T06:45:06;97790.97;;;14.84;82.09
40850;BME280;26571;41.610;25.380;2023-11-22T06:47:53;97788.69;;;14.94;81.41
40850;BME280;26571;41.610;25.380;2023-11-22T06:50:18;97771.81;;;14.88;80.92
40850;BME280;26571;41.610;25.380;2023-11-22T06:52:44;97799.44;;;15.12;80.73
40850;BME280;26571;41.610;25.380;2023-11-22T06:55:11;97798.63;;;15.12;80.46
40850;BME280;26571;41.610;25.380;2023-11-22T06:57:37;97805.56;;;15.13;80.86
40850;BME280;26571;41.610;25.380;2023-11-22T07:00:04;97810.81;;;15.19;81.03
40850;BME280;26571;41.610;25.380;2023-11-22T07:02:31;97798.13;;;15.28;81.01
40850;BME280;26571;41.610;25.380;2023-11-22T07:04:57;97805.25;;;15.34;80.78
40850;BME280;26571;41.610;25.380;2023-11-22T07:07:24;97811.13;;;15.36;81.49
40850;BME280;26571;41.610;25.380;2023-11-22T07:09:49;97794.69;;;15.21;81.70
40850;BME280;26571;41.610;25.380;2023-11-22T07:12:15;97812.16;;;15.35;82.57
40850;BME280;26571;41.610;25.380;2023-11-22T07:14:41;97810.72;;;15.39;83.29
40850;BME280;26571;41.610;25.380;2023-11-22T07:17:08;97808.66;;;15.41;83.00
40850;BME280;26571;41.610;25.380;2023-11-22T07:19:34;97809.28;;;15.43;83.72
40850;BME280;26571;41.610;25.380;2023-11-22T07:22:06;97815.78;;;15.47;83.57
40850;BME280;26571;41.610;25.380;2023-11-22T07:24:41;97778.38;;;15.24;83.51
40850;BME280;26571;41.610;25.380;2023-11-22T07:27:11;97820.66;;;15.50;83.65
40850;BME280;26571;41.610;25.380;2023-11-22T07:29:41;97817.97;;;15.57;83.85
40850;BME280;26571;41.610;25.380;2023-11-22T07:32:07;97815.69;;;15.61;84.25
40850;BME280;26571;41.610;25.380;2023-11-22T07:34:38;97829.78;;;15.61;84.21
40850;BME280;26571;41.610;25.380;2023-11-22T07:37:08;97826.50;;;15.72;84.22
40850;BME280;26571;41.610;25.380;2023-11-22T07:39:34;97837.63;;;15.88;83.25
40850;BME280;26571;41.610;25.380;2023-11-22T07:42:00;97839.72;;;15.79;83.18
40850;BME280;26571;41.610;25.380;2023-11-22T07:44:26;97846.22;;;15.83;83.29
40850;BME280;26571;41.610;25.380;2023-11-22T07:46:52;97814.50;;;15.63;83.54
40850;BME280;26571;41.610;25.380;2023-11-22T07:49:19;97843.75;;;15.88;83.81
40850;BME280;26571;41.610;25.380;2023-11-22T07:51:46;97844.50;;;15.95;84.36
40850;BME280;26571;41.610;25.380;2023-11-22T07:54:12;97845.28;;;16.02;85.34
40850;BME280;26571;41.610;25.380;2023-11-22T07:56:43;97843.66;;;16.01;82.26
40850;BME280;26571;41.610;25.380;2023-11-22T07:59:09;97836.09;;;15.98;81.85
40850;BME280;26571;41.610;25.380;2023-11-22T08:01:38;97857.44;;;16.17;81.41
40850;BME280;26571;41.610;25.380;2023-11-22T08:04:04;97851.19;;;16.29;81.17
40850;BME280;26571;41.610;25.380;2023-11-22T08:06:31;97855.03;;;16.34;80.17
40850;BME280;26571;41.610;25.380;2023-11-22T08:08:58;97855.69;;;16.29;79.20
40850;BME280;26571;41.610;25.380;2023-11-22T08:11:27;97855.53;;;16.24;79.24
40850;BME280;26571;41.610;25.380;2023-11-22T08:13:53;97861.38;;;16.33;78.43
40850;BME280;26571;41.610;25.380;2023-11-22T08:16:23;97854.56;;;16.18;78.77
40850;BME280;26571;41.610;25.380;2023-11-22T08:18:48;97857.75;;;16.27;78.25
40850;BME280;26571;41.610;25.380;2023-11-22T08:21:14;97856.09;;;16.26;78.61
40850;BME280;26571;41.610;25.380;2023-11-22T08:23:39;97854.78;;;16.42;77.79
40850;BME280;26571;41.610;25.380;2023-11-22T08:26:05;97847.19;;;16.64;76.47
40850;BME280;26571;41.610;25.380;2023-11-22T08:28:31;97825.28;;;16.68;73.71
40850;BME280;26571;41.610;25.380;2023-11-22T08:30:57;97842.69;;;17.08;74.04
40850;BME280;26571;41.610;25.380;2023-11-22T08:33:22;97843.69;;;17.25;73.27
40850;BME280;26571;41.610;25.380;2023-11-22T08:35:48;97846.34;;;17.25;73.94
40850;BME280;26571;41.610;25.380;2023-11-22T08:38:17;97842.41;;;17.16;73.91
40850;BME280;26571;41.610;25.380;2023-11-22T08:40:44;97835.22;;;17.16;73.17
40850;BME280;26571;41.610;25.380;2023-11-22T08:43:09;97728.81;;;16.31;72.94
40850;BME280;26571;41.610;25.380;2023-11-22T08:45:35;97843.13;;;17.04;72.63
40850;BME280;26571;41.610;25.380;2023-11-22T08:48:00;97825.06;;;16.70;74.83
40850;BME280;26571;41.610;25.380;2023-11-22T08:50:26;97805.56;;;16.58;74.92
40850;BME280;26571;41.610;25.380;2023-11-22T08:52:52;97816.50;;;16.68;74.34
40850;BME280;26571;41.610;25.380;2023-11-22T08:55:21;97841.00;;;16.70;76.42
40850;BME280;26571;41.610;25.380;2023-11-22T08:57:48;97843.56;;;16.83;75.48
40850;BME280;26571;41.610;25.380;2023-11-22T09:00:16;97846.94;;;16.90;74.21
40850;BME280;26571;41.610;25.380;2023-11-22T09:02:48;97839.06;;;16.84;74.65
40850;BME280;26571;41.610;25.380;2023-11-22T09:05:13;97820.53;;;16.77;74.97
40850;BME280;26571;41.610;25.380;2023-11-22T09:07:41;97834.69;;;16.89;76.10
40850;BME280;26571;41.610;25.380;2023-11-22T09:10:06;97831.91;;;17.02;74.80
40850;BME280;26571;41.610;25.380;2023-11-22T09:12:39;97825.91;;;17.07;74.38
40850;BME280;26571;41.610;25.380;2023-11-22T09:15:10;97827.03;;;16.99;74.49
40850;BME280;26571;41.610;25.380;2023-11-22T09:17:41;97826.88;;;17.13;75.10
40850;BME280;26571;41.610;25.380;2023-11-22T09:20:09;97824.63;;;17.28;74.26
40850;BME280;26571;41.610;25.380;2023-11-22T09:22:41;97812.47;;;17.02;74.53
40850;BME280;26571;41.610;25.380;2023-11-22T09:25:10;97822.50;;;17.18;73.32
40850;BME280;26571;41.610;25.380;2023-11-22T09:27:36;97802.94;;;17.13;77.27
40850;BME280;26571;41.610;25.380;2023-11-22T09:30:03;97815.84;;;17.27;79.24
40850;BME280;26571;41.610;25.380;2023-11-22T09:32:30;97814.72;;;17.35;81.52
40850;BME280;26571;41.610;25.380;2023-11-22T09:34:56;97826.81;;;17.49;83.39
40850;BME280;26571;41.610;25.380;2023-11-22T09:37:23;97815.69;;;17.41;85.19
40850;BME280;26571;41.610;25.380;2023-11-22T09:39:49;97803.50;;;17.33;86.14
40850;BME280;26571;41.610;25.380;2023-11-22T09:42:15;97813.31;;;17.33;86.87
40850;BME280;26571;41.610;25.380;2023-11-22T09:44:40;97818.56;;;17.39;86.65
40850;BME280;26571;41.610;25.380;2023-11-22T09:47:06;97816.28;;;17.54;86.00
40850;BME280;26571;41.610;25.380;2023-11-22T09:49:33;97761.84;;;17.27;85.38
40850;BME280;26571;41.610;25.380;2023-11-22T09:52:01;97799.06;;;17.87;83.45
40850;BME280;26571;41.610;25.380;2023-11-22T09:54:28;97766.31;;;17.87;81.21
40850;BME280;26571;41.610;25.380;2023-11-22T09:56:58;97795.31;;;18.30;80.69
40850;BME280;26571;41.610;25.380;2023-11-22T09:59:27;97794.50;;;18.41;80.38
40850;BME280;26571;41.610;25.380;2023-11-22T10:01:53;97798.31;;;18.45;79.40
40850;BME280;26571;41.610;25.380;2023-11-22T10:04:19;97802.84;;;18.80;79.87
40850;BME280;26571;41.610;25.380;2023-11-22T10:06:45;97792.50;;;19.24;77.50
40850;BME280;26571;41.610;25.380;2023-11-22T10:09:12;97796.91;;;19.58;73.83
40850;BME280;26571;41.610;25.380;2023-11-22T10:11:39;97792.63;;;19.86;70.10
40850;BME280;26571;41.610;25.380;2023-11-22T10:14:08;97792.00;;;19.67;69.14
40850;BME280;26571;41.610;25.380;2023-11-22T10:16:34;97795.38;;;19.34;70.85
40850;BME280;26571;41.610;25.380;2023-11-22T10:18:59;97797.44;;;19.03;73.25
40850;BME280;26571;41.610;25.380;2023-11-22T10:21:27;97798.66;;;18.84;73.63
40850;BME280;26571;41.610;25.380;2023-11-22T10:23:55;97785.69;;;18.76;75.16
40850;BME280;26571;41.610;25.380;2023-11-22T10:26:24;97777.34;;;18.60;75.33
40850;BME280;26571;41.610;25.380;2023-11-22T10:28:51;97774.00;;;18.42;75.59
40850;BME280;26571;41.610;25.380;2023-11-22T10:31:18;97782.31;;;18.33;76.53
40850;BME280;26571;41.610;25.380;2023-11-22T10:33:43;97776.53;;;18.25;78.53
40850;BME280;26571;41.610;25.380;2023-11-22T10:36:09;97761.34;;;18.14;80.04
40850;BME280;26571;41.610;25.380;2023-11-22T10:38:35;97777.56;;;18.12;81.18
40850;BME280;26571;41.610;25.380;2023-11-22T10:41:04;97787.53;;;18.17;81.67
40850;BME280;26571;41.610;25.380;2023-11-22T10:43:31;97754.50;;;17.82;80.25
40850;BME280;26571;41.610;25.380;2023-11-22T10:46:01;97758.28;;;17.75;80.07
40850;BME280;26571;41.610;25.380;2023-11-22T10:48:27;97778.47;;;17.94;79.76
40850;BME280;26571;41.610;25.380;2023-11-22T10:50:55;97780.69;;;17.97;79.18
40850;BME280;26571;41.610;25.380;2023-11-22T10:53:32;97787.28;;;18.06;78.50
40850;BME280;26571;41.610;25.380;2023-11-22T10:56:04;97784.75;;;18.12;77.55
40850;BME280;26571;41.610;25.380;2023-11-22T10:58:43;97778.38;;;18.13;75.46
40850;BME280;26571;41.610;25.380;2023-11-22T11:01:10;97785.00;;;18.22;74.15
40850;BME280;26571;41.610;25.380;2023-11-22T11:03:39;97783.38;;;18.21;73.02
40850;BME280;26571;41.610;25.380;2023-11-22T11:06:10;97788.72;;;18.21;72.11
40850;BME280;26571;41.610;25.380;2023-11-22T11:08:38;97738.16;;;17.79;71.68
40850;BME280;26571;41.610;25.380;2023-11-22T11:11:05;97790.88;;;18.24;70.53
40850;BME280;26571;41.610;25.380;2023-11-22T11:13:31;97786.59;;;18.23;71.67
40850;BME280;26571;41.610;25.380;2023-11-22T11:15:58;97766.44;;;18.03;71.78
40850;BME280;26571;41.610;25.380;2023-11-22T11:18:24;97786.72;;;18.16;72.58
40850;BME280;26571;41.610;25.380;2023-11-22T11:20:58;97793.22;;;18.20;72.98
40850;BME280;26571;41.610;25.380;2023-11-22T11:23:28;97789.84;;;18.25;72.35
40850;BME280;26571;41.610;25.380;2023-11-22T11:25:58;97790.53;;;18.08;71.99
40850;BME280;26571;41.610;25.380;2023-11-22T11:28:45;97788.78;;;18.14;72.56
40850;BME280;26571;41.610;25.380;2023-11-22T11:31:11;97776.97;;;17.98;73.16
40850;BME280;26571;41.610;25.380;2023-11-22T11:36:26;97788.22;;;18.00;74.58
40850;BME280;26571;41.610;25.380;2023-11-22T11:38:53;97771.16;;;17.90;74.62
40850;BME280;26571;41.610;25.380;2023-11-22T11:41:25;97787.75;;;18.03;74.97
40850;BME280;26571;41.610;25.380;2023-11-22T11:43:51;97780.34;;;18.05;74.92
40850;BME280;26571;41.610;25.380;2023-11-22T11:46:17;97763.22;;;18.01;74.42
40850;BME280;26571;41.610;25.380;2023-11-22T11:48:50;97792.38;;;18.20;74.05
40850;BME280;26571;41.610;25.380;2023-11-22T11:51:22;97791.47;;;18.14;73.08
40850;BME280;26571;41.610;25.380;2023-11-22T11:53:48;97795.41;;;18.12;72.49
40850;BME280;26571;41.610;25.380;2023-11-22T11:56:14;97794.81;;;18.09;72.78
40850;BME280;26571;41.610;25.380;2023-11-22T11:58:47;97805.59;;;18.15;72.09
40850;BME280;26571;41.610;25.380;2023-11-22T12:01:15;97803.66;;;18.10;71.10
40850;BME280;26571;41.610;25.380;2023-11-22T12:03:47;97777.78;;;17.87;71.36
40850;BME280;26571;41.610;25.380;2023-11-22T12:06:16;97794.00;;;17.97;71.23
40850;BME280;26571;41.610;25.380;2023-11-22T12:08:42;97800.56;;;17.95;71.94
40850;BME280;26571;41.610;25.380;2023-11-22T12:11:08;97772.34;;;17.64;72.10
40850;BME280;26571;41.610;25.380;2023-11-22T12:13:34;97804.16;;;17.77;72.60
40850;BME280;26571;41.610;25.380;2023-11-22T12:16:04;97808.06;;;17.74;72.22
40850;BME280;26571;41.610;25.380;2023-11-22T12:18:42;97802.53;;;17.76;71.73
40850;BME280;26571;41.610;25.380;2023-11-22T12:21:11;97776.06;;;17.63;71.88
40850;BME280;26571;41.610;25.380;2023-11-22T12:23:38;97801.13;;;17.85;72.16
40850;BME280;26571;41.610;25.380;2023-11-22T12:26:04;97799.19;;;17.92;72.45
40850;BME280;26571;41.610;25.380;2023-11-22T12:28:30;97798.50;;;17.97;72.76
40850;BME280;26571;41.610;25.380;2023-11-22T12:31:07;97781.72;;;17.96;72.51
40850;BME280;26571;41.610;25.380;2023-11-22T12:33:32;97790.88;;;18.12;73.20
40850;BME280;26571;41.610;25.380;2023-11-22T12:35:58;97792.28;;;18.15;73.99
40850;BME280;26571;41.610;25.380;2023-11-22T12:38:24;97797.22;;;17.99;75.73
40850;BME280;26571;41.610;25.380;2023-11-22T12:40:51;97783.22;;;17.92;76.16
40850;BME280;26571;41.610;25.380;2023-11-22T12:43:17;97780.88;;;17.84;76.18
40850;BME280;26571;41.610;25.380;2023-11-22T12:45:43;97791.66;;;17.89;76.50
40850;BME280;26571;41.610;25.380;2023-11-22T12:48:21;97779.38;;;17.88;76.28
40850;BME280;26571;41.610;25.380;2023-11-22T12:50:48;97780.44;;;17.99;76.35